Time;durP1;ratioP1;P1;durP2;ratioP2;P2;SDS_P1;SDS_P2;PMS_P1;PMS_P2;Temp;Humidity;BMP_temperature;BMP_pressure;BME280_temperature;BME280_humidity;BME280_pressure;Samples;Min_cycle;Max_cycle;Signal;HPM_P1;HPM_P2
2020/12/14 05:02:42;;;;;;;32.92;15.77;;;;;;;2.73;83.19;99943.81;5057214;23;20465;-78
2020/12/14 05:05:13;;;;;;;35.03;16.35;;;;;;;2.77;81.78;99942.44;5032241;28;20517;-77
2020/12/14 05:07:41;;;;;;;37.42;14.95;;;;;;;2.40;83.13;99937.78;5033218;28;20521;-78
2020/12/14 05:10:07;;;;;;;34.63;15.85;;;;;;;2.43;83.48;99940.09;5032115;28;20583;-79
2020/12/14 05:12:44;;;;;;;32.45;15.50;;;;;;;2.29;84.43;99947.00;5033431;28;20056;-79
2020/12/14 05:15:18;;;;;;;29.80;15.23;;;;;;;2.52;83.86;99947.06;5032758;28;20040;-78
2020/12/14 05:17:44;;;;;;;29.58;14.27;;;;;;;2.34;83.95;99947.31;5032836;28;20506;-78
2020/12/14 05:20:14;;;;;;;25.08;12.85;;;;;;;2.41;83.48;99950.97;5032812;28;20036;-78
2020/12/14 05:22:54;;;;;;;23.15;11.10;;;;;;;2.24;84.06;99957.34;5032577;28;20094;-78
2020/12/14 05:25:19;;;;;;;25.35;12.35;;;;;;;2.61;83.85;99948.69;5033254;28;20136;-78
2020/12/14 05:27:45;;;;;;;26.25;12.85;;;;;;;2.57;83.45;99954.53;5032143;28;20111;-78
2020/12/14 05:30:14;;;;;;;24.48;11.38;;;;;;;2.56;81.60;99959.03;5032701;28;20336;-78
2020/12/14 05:32:40;;;;;;;17.23;10.23;;;;;;;2.48;82.26;99970.59;5031980;28;20124;-78
2020/12/14 05:35:11;;;;;;;19.77;10.90;;;;;;;2.85;83.90;99961.09;5030251;28;20135;-79
2020/12/14 05:37:37;;;;;;;21.00;10.15;;;;;;;2.81;82.95;99967.78;5032610;28;20048;-78
2020/12/14 05:40:10;;;;;;;18.13;8.75;;;;;;;2.54;79.80;99961.06;5049301;28;20056;-78
2020/12/14 05:42:42;;;;;;;21.42;9.13;;;;;;;1.86;81.42;99952.75;5032544;28;20037;-78
2020/12/14 05:45:12;;;;;;;16.33;9.25;;;;;;;2.02;81.54;99942.06;5030054;28;20040;-78
2020/12/14 05:47:41;;;;;;;18.05;9.13;;;;;;;2.11;82.13;99946.38;5013041;28;20051;-78
2020/12/14 05:50:10;;;;;;;19.13;10.10;;;;;;;2.22;82.60;99943.34;5017181;28;20415;-78
2020/12/14 05:52:45;;;;;;;20.08;9.77;;;;;;;2.18;83.84;99945.53;5032643;28;20097;-78
2020/12/14 05:55:16;;;;;;;26.23;13.65;;;;;;;3.25;85.46;99944.78;5029356;28;20121;-78
2020/12/14 05:57:48;;;;;;;24.88;12.77;;;;;;;3.52;84.83;99947.94;5044397;28;20562;-78
2020/12/14 06:00:14;;;;;;;28.90;14.45;;;;;;;3.76;84.34;99947.72;5017192;28;20033;-78
2020/12/14 06:02:39;;;;;;;28.00;13.82;;;;;;;4.00;84.28;99947.47;5028738;28;20040;-78
2020/12/14 06:05:06;;;;;;;31.00;15.00;;;;;;;4.22;84.44;99948.41;5029781;28;20043;-78
2020/12/14 06:07:33;;;;;;;30.23;15.98;;;;;;;4.45;84.16;99944.78;5029230;28;20036;-77
2020/12/14 06:10:04;;;;;;;29.35;13.68;;;;;;;4.59;83.59;99958.16;5028842;28;20040;-78
2020/12/14 06:12:31;;;;;;;30.10;15.05;;;;;;;4.67;83.51;99955.38;5044904;28;20098;-79
2020/12/14 06:15:12;;;;;;;29.90;15.50;;;;;;;4.82;83.01;99957.22;5029071;28;20050;-78
2020/12/14 06:17:38;;;;;;;29.98;14.05;;;;;;;4.92;83.29;99944.34;5012528;28;20044;-79
2020/12/14 06:20:12;;;;;;;29.67;16.02;;;;;;;4.98;83.48;99946.25;5030197;28;20036;-76
2020/12/14 06:22:42;;;;;;;32.90;16.85;;;;;;;4.98;83.38;99941.72;5032080;28;20041;-76
2020/12/14 06:25:09;;;;;;;31.75;17.38;;;;;;;5.06;83.07;99954.19;5032433;28;20053;-76
2020/12/14 06:27:34;;;;;;;28.98;14.45;;;;;;;5.10;82.41;99952.78;5047068;28;20437;-76
2020/12/14 06:29:59;;;;;;;30.27;15.55;;;;;;;5.14;82.49;99951.38;5016350;28;20033;-76
2020/12/14 06:32:40;;;;;;;28.38;15.95;;;;;;;5.18;82.54;99949.16;5016090;28;20052;-76
2020/12/14 06:35:14;;;;;;;30.70;17.13;;;;;;;5.17;82.42;99952.88;5016086;28;20470;-76
2020/12/14 06:37:55;;;;;;;27.10;15.65;;;;;;;5.21;82.23;99940.72;5015068;28;20472;-77
2020/12/14 06:40:21;;;;;;;26.73;15.77;;;;;;;5.17;82.54;99948.34;5015724;28;20561;-76
2020/12/14 06:42:48;;;;;;;29.25;15.20;;;;;;;5.25;81.86;99952.72;5032357;28;20120;-76
2020/12/14 06:45:14;;;;;;;29.23;15.82;;;;;;;5.24;82.13;99951.91;5016206;28;20094;-76
2020/12/14 06:47:45;;;;;;;27.63;16.33;;;;;;;5.24;81.92;99943.03;5005111;28;20263;-76
2020/12/14 06:50:32;;;;;;;29.77;16.33;;;;;;;5.24;81.71;99949.22;5016198;28;20064;-76
2020/12/14 06:53:01;;;;;;;26.13;14.65;;;;;;;5.22;81.72;99939.69;5015168;28;20084;-75
2020/12/14 06:55:55;;;;;;;24.70;14.55;;;;;;;5.21;81.32;99941.56;5018418;28;20044;-77
2020/12/14 06:58:43;;;;;;;28.25;14.55;;;;;;;5.23;81.83;99936.00;4972937;28;20067;-79
2020/12/14 07:01:31;;;;;;;30.80;15.38;;;;;;;5.19;81.41;99942.78;5018817;28;20041;-79
2020/12/14 07:03:57;;;;;;;28.63;15.95;;;;;;;5.22;81.90;99940.53;5005279;28;20491;-79
2020/12/14 07:06:26;;;;;;;25.38;14.10;;;;;;;5.20;82.04;99936.38;5032549;28;20112;-78
2020/12/14 07:08:52;;;;;;;30.17;15.20;;;;;;;5.20;81.61;99933.69;5014295;28;20130;-76
2020/12/14 07:11:20;;;;;;;32.63;17.98;;;;;;;5.18;81.54;99930.41;5015249;28;20491;-77
2020/12/14 07:13:47;;;;;;;24.88;15.50;;;;;;;5.23;81.40;99934.16;5015530;28;20040;-77
2020/12/14 07:16:15;;;;;;;24.45;14.00;;;;;;;5.23;81.61;99939.50;5014631;28;20056;-77
2020/12/14 07:18:44;;;;;;;26.52;14.23;;;;;;;5.26;81.50;99933.78;5030148;28;20411;-77
2020/12/14 07:21:14;;;;;;;26.15;13.27;;;;;;;5.26;81.32;99932.94;5023266;28;20299;-76
2020/12/14 07:23:45;;;;;;;24.77;14.63;;;;;;;5.28;81.58;99930.91;5022661;28;20047;-77
2020/12/14 07:26:13;;;;;;;26.08;15.20;;;;;;;5.27;81.54;99937.28;5039378;28;20046;-77
2020/12/14 07:28:43;;;;;;;29.17;15.07;;;;;;;5.25;81.22;99929.44;5022349;28;20296;-77
2020/12/14 07:31:14;;;;;;;26.27;14.32;;;;;;;5.27;81.51;99930.09;5026901;28;20049;-76
2020/12/14 07:33:47;;;;;;;26.98;15.50;;;;;;;5.28;81.25;99931.75;5023439;28;20410;-77
2020/12/14 07:36:13;;;;;;;26.65;14.60;;;;;;;5.27;81.04;99934.63;5015349;28;20052;-77
2020/12/14 07:38:47;;;;;;;28.17;14.10;;;;;;;5.28;81.20;99922.88;5005183;28;20041;-78
2020/12/14 07:41:15;;;;;;;28.92;12.73;;;;;;;5.34;80.83;99928.28;5011581;28;20060;-77
2020/12/14 07:43:53;;;;;;;33.17;13.55;;;;;;;5.34;80.34;99925.59;5027486;28;20037;-76
2020/12/14 07:46:30;;;;;;;26.30;13.57;;;;;;;5.31;80.56;99931.34;5014138;28;20029;-76
2020/12/14 07:49:02;;;;;;;21.27;11.10;;;;;;;5.32;80.43;99924.97;5033963;28;20132;-78
2020/12/14 07:51:29;;;;;;;23.30;13.50;;;;;;;5.34;80.17;99920.25;5034898;28;20359;-78
2020/12/14 07:54:04;;;;;;;26.45;13.75;;;;;;;5.38;80.66;99926.88;5028781;28;20040;-77
2020/12/14 07:56:30;;;;;;;24.42;13.90;;;;;;;5.39;80.17;99928.53;5020757;28;20044;-77
2020/12/14 07:58:56;;;;;;;26.08;14.82;;;;;;;5.41;79.99;99923.00;5022432;28;20080;-77
2020/12/14 08:01:22;;;;;;;25.15;13.80;;;;;;;5.47;80.00;99914.16;5014091;28;20508;-77
2020/12/14 08:03:48;;;;;;;25.83;15.50;;;;;;;5.50;79.93;99916.47;5030599;28;20120;-76
2020/12/14 08:06:18;;;;;;;32.70;16.55;;;;;;;5.58;79.43;99919.00;5015813;28;20157;-77
2020/12/14 08:08:48;;;;;;;26.35;15.80;;;;;;;5.70;79.04;99913.94;5030010;28;20033;-77
2020/12/14 08:11:16;;;;;;;24.75;13.82;;;;;;;5.63;78.73;99919.28;5027331;28;20025;-77
2020/12/14 08:13:50;;;;;;;25.25;13.98;;;;;;;5.64;78.97;99909.38;5033775;28;20665;-78
2020/12/14 08:16:19;;;;;;;25.75;13.55;;;;;;;5.72;79.03;99915.41;5034723;28;20105;-78
2020/12/14 08:18:48;;;;;;;23.40;13.00;;;;;;;5.70;78.75;99900.53;5050397;28;20048;-76
2020/12/14 08:21:22;;;;;;;23.88;14.27;;;;;;;5.77;78.47;99906.75;5033706;28;20044;-76
2020/12/14 08:23:49;;;;;;;21.15;11.85;;;;;;;5.78;78.56;99898.53;5030443;28;20041;-76
2020/12/14 08:26:19;;;;;;;21.70;12.40;;;;;;;5.82;78.55;99896.28;5030349;28;20037;-76
2020/12/14 08:28:46;;;;;;;21.98;11.32;;;;;;;5.86;78.18;99910.97;5013719;28;20087;-77
2020/12/14 08:31:11;;;;;;;20.67;9.50;;;;;;;5.89;77.46;99910.59;5013647;28;20041;-76
2020/12/14 08:33:56;;;;;;;20.63;11.52;;;;;;;5.97;77.47;99907.78;5014805;28;20048;-77
2020/12/14 08:36:24;;;;;;;17.33;8.90;;;;;;;5.97;77.47;99918.50;5018797;28;20053;-77
2020/12/14 08:38:50;;;;;;;16.33;9.32;;;;;;;6.02;77.25;99917.91;5030382;28;20403;-78
2020/12/14 08:41:24;;;;;;;15.50;8.02;;;;;;;6.16;76.44;99922.34;5013621;28;20045;-77
2020/12/14 08:43:54;;;;;;;15.55;8.63;;;;;;;6.71;77.60;99917.84;5013743;28;20136;-77
2020/12/14 08:46:21;;;;;;;14.82;6.32;;;;;;;6.45;75.69;99914.03;5013661;28;20061;-76
2020/12/14 08:48:52;;;;;;;15.55;8.32;;;;;;;6.22;75.76;99910.00;5012514;28;20028;-77
2020/12/14 08:51:26;;;;;;;15.60;8.25;;;;;;;6.31;75.93;99919.53;5023181;28;20091;-77
2020/12/14 08:53:53;;;;;;;16.23;8.25;;;;;;;6.67;76.53;99919.28;5033227;28;20028;-76
2020/12/14 08:56:21;;;;;;;17.55;9.88;;;;;;;6.27;75.44;99932.53;5033005;28;20063;-77
2020/12/14 08:58:56;;;;;;;13.73;7.35;;;;;;;6.47;74.86;99933.44;5032561;28;20036;-76
2020/12/14 09:01:27;;;;;;;18.45;9.82;;;;;;;6.34;75.12;99938.78;5033139;28;20133;-77
2020/12/14 09:03:56;;;;;;;18.88;9.95;;;;;;;6.33;75.51;99938.97;5031960;28;20032;-77
2020/12/14 09:06:43;;;;;;;24.75;13.05;;;;;;;6.43;76.47;99937.56;5032950;28;20041;-77
2020/12/14 09:09:13;;;;;;;20.55;9.88;;;;;;;6.35;74.95;99943.09;5049120;28;20044;-77
2020/12/14 09:11:41;;;;;;;17.77;9.98;;;;;;;6.39;75.28;99944.38;5032554;28;20045;-77
2020/12/14 09:14:08;;;;;;;17.80;9.55;;;;;;;6.44;75.09;99939.25;5033187;28;20584;-77
2020/12/14 09:16:35;;;;;;;20.00;11.40;;;;;;;6.53;74.35;99935.34;5033647;28;20583;-77
2020/12/14 09:19:02;;;;;;;19.80;9.65;;;;;;;6.68;75.38;99935.22;5029271;28;20561;-77
2020/12/14 09:21:28;;;;;;;17.27;9.60;;;;;;;6.62;74.46;99937.84;5028907;28;20049;-77
2020/12/14 09:24:12;;;;;;;17.10;9.90;;;;;;;6.60;74.60;99932.69;5028899;28;20043;-77
2020/12/14 09:26:39;;;;;;;15.07;8.32;;;;;;;6.71;74.86;99931.28;5028538;28;20037;-77
2020/12/14 09:29:05;;;;;;;15.20;8.68;;;;;;;6.74;73.89;99928.19;5047855;28;20052;-76
2020/12/14 09:31:31;;;;;;;12.30;6.55;;;;;;;6.86;73.18;99923.91;5032492;28;20364;-76
2020/12/14 09:33:57;;;;;;;14.30;7.90;;;;;;;7.01;74.87;99923.75;5028731;28;20103;-77
2020/12/14 09:36:22;;;;;;;11.77;6.45;;;;;;;6.95;73.49;99924.53;5013028;28;20531;-78
2020/12/14 09:38:47;;;;;;;13.75;8.25;;;;;;;6.93;72.87;99918.53;5012371;28;20037;-77
2020/12/14 09:41:13;;;;;;;11.00;6.97;;;;;;;7.00;72.39;99912.16;5012253;28;20033;-78
2020/12/14 09:43:38;;;;;;;9.55;5.30;;;;;;;7.28;72.81;99912.00;5013082;28;20513;-76
2020/12/14 09:46:04;;;;;;;11.20;6.22;;;;;;;7.03;71.98;99909.06;5013703;28;20045;-76
2020/12/14 09:48:29;;;;;;;12.18;7.07;;;;;;;7.14;72.25;99907.66;5012807;28;20480;-76
2020/12/14 09:50:55;;;;;;;10.00;6.22;;;;;;;7.03;71.70;99906.38;5011735;28;20128;-76
2020/12/14 09:53:20;;;;;;;9.23;5.95;;;;;;;7.04;71.81;99905.34;5032208;28;20041;-76
2020/12/14 09:55:46;;;;;;;10.90;5.10;;;;;;;7.01;71.56;99892.31;5033649;28;20080;-77
2020/12/14 09:58:11;;;;;;;9.10;5.57;;;;;;;7.09;71.72;99899.34;5035670;28;20495;-76
2020/12/14 10:00:37;;;;;;;10.27;6.05;;;;;;;7.62;74.12;99892.97;5036202;28;20063;-76
2020/12/14 10:03:03;;;;;;;9.20;5.53;;;;;;;7.34;71.36;99903.13;5035776;28;20040;-76
2020/12/14 10:05:29;;;;;;;10.90;6.30;;;;;;;7.32;72.08;99899.81;5035810;28;20495;-76
2020/12/14 10:07:55;;;;;;;11.02;6.07;;;;;;;7.51;71.74;99906.22;5032059;28;20029;-76
2020/12/14 10:10:20;;;;;;;8.23;5.35;;;;;;;7.48;70.87;99910.16;5016057;28;20068;-77
2020/12/14 10:12:45;;;;;;;11.55;5.95;;;;;;;7.66;71.16;99906.03;5032524;28;20068;-76
2020/12/14 10:15:12;;;;;;;9.63;6.07;;;;;;;7.45;70.46;99899.00;5015644;28;20096;-76
2020/12/14 10:17:37;;;;;;;10.27;5.85;;;;;;;7.49;70.04;99908.31;5015868;28;20504;-77
2020/12/14 10:20:05;;;;;;;9.60;6.35;;;;;;;7.41;70.39;99901.25;5016243;28;20124;-76
2020/12/14 10:22:31;;;;;;;7.68;5.05;;;;;;;7.55;72.69;99902.09;5015231;28;20044;-76
2020/12/14 10:24:58;;;;;;;8.80;4.95;;;;;;;7.32;70.63;99902.50;5015479;28;20056;-76
2020/12/14 10:27:23;;;;;;;9.30;5.85;;;;;;;7.47;71.38;99905.81;5015714;28;20044;-76
2020/12/14 10:29:49;;;;;;;9.77;5.50;;;;;;;7.64;72.31;99906.22;5015515;28;20052;-75
2020/12/14 10:32:15;;;;;;;10.25;7.28;;;;;;;7.52;70.79;99908.69;5015097;28;20067;-75
2020/12/14 10:34:40;;;;;;;14.25;6.38;;;;;;;7.28;71.47;99896.69;5015390;28;20041;-76
2020/12/14 10:37:06;;;;;;;11.60;7.50;;;;;;;7.41;71.26;99901.25;5015789;28;20065;-76
2020/12/14 10:39:31;;;;;;;14.73;8.02;;;;;;;7.61;72.65;99910.16;5015260;28;20501;-78
2020/12/14 10:41:57;;;;;;;13.63;7.20;;;;;;;7.50;70.48;99907.28;5032476;28;20045;-75
2020/12/14 10:44:22;;;;;;;16.52;8.90;;;;;;;7.58;71.36;99899.00;5031742;28;20091;-76
2020/12/14 10:46:48;;;;;;;12.45;7.45;;;;;;;7.37;71.06;99901.88;5015417;28;20613;-75
2020/12/14 10:49:13;;;;;;;15.15;7.82;;;;;;;7.69;72.22;99909.13;5016637;28;20044;-77
2020/12/14 10:51:39;;;;;;;15.23;8.05;;;;;;;7.34;71.24;99913.03;5015029;28;20086;-76
2020/12/14 10:54:04;;;;;;;17.75;9.70;;;;;;;7.50;72.21;99905.38;5016192;28;20492;-76
2020/12/14 10:56:30;;;;;;;16.63;8.85;;;;;;;7.61;71.05;99903.97;5015599;28;20045;-75
2020/12/14 10:58:56;;;;;;;15.68;8.75;;;;;;;7.57;70.41;99908.94;5046164;28;20083;-76
2020/12/14 11:01:22;;;;;;;17.45;9.48;;;;;;;7.64;71.34;99898.16;5034503;28;20049;-76
2020/12/14 11:03:48;;;;;;;22.30;12.02;;;;;;;7.60;70.73;99900.44;5072662;28;20062;-76
2020/12/14 11:06:13;;;;;;;18.80;9.70;;;;;;;7.60;70.19;99905.00;5036713;28;20071;-76
2020/12/14 11:08:39;;;;;;;14.98;7.95;;;;;;;7.57;71.00;99900.03;5034634;28;20036;-76
2020/12/14 11:11:04;;;;;;;17.38;9.35;;;;;;;7.52;70.41;99906.00;5026976;28;20056;-76
2020/12/14 11:13:30;;;;;;;15.63;9.18;;;;;;;7.77;70.09;99916.97;5015623;28;20132;-76
2020/12/14 11:15:55;;;;;;;17.23;9.73;;;;;;;7.59;69.51;99904.16;5031263;28;20049;-76
2020/12/14 11:18:21;;;;;;;16.15;9.85;;;;;;;7.60;70.05;99910.38;5031186;28;20148;-76
2020/12/14 11:20:46;;;;;;;15.80;9.02;;;;;;;7.72;70.76;99903.34;5014987;28;20044;-76
2020/12/14 11:23:12;;;;;;;16.67;9.70;;;;;;;7.90;69.72;99910.75;5014829;28;20516;-77
2020/12/14 11:25:38;;;;;;;17.52;9.25;;;;;;;7.95;69.62;99909.13;5014140;28;20033;-77
2020/12/14 11:28:03;;;;;;;15.70;10.15;;;;;;;7.58;69.65;99915.97;5030256;28;20094;-76
2020/12/14 11:30:28;;;;;;;17.85;10.38;;;;;;;7.62;69.66;99909.13;5034747;28;20470;-76
2020/12/14 11:32:54;;;;;;;18.65;11.23;;;;;;;7.69;69.90;99901.06;5033549;28;20025;-75
2020/12/14 11:35:20;;;;;;;17.58;10.43;;;;;;;7.64;69.68;99901.66;5033799;28;20575;-76
2020/12/14 11:37:45;;;;;;;20.58;10.32;;;;;;;7.59;69.63;99904.16;5033775;28;20449;-76
2020/12/14 11:40:12;;;;;;;23.95;11.73;;;;;;;7.55;69.38;99894.84;5033735;28;20067;-76
2020/12/14 11:42:38;;;;;;;19.20;12.15;;;;;;;7.52;69.20;99894.44;5033971;28;20036;-76
2020/12/14 11:45:07;;;;;;;15.07;9.38;;;;;;;7.56;69.38;99899.19;5033409;28;20089;-75
2020/12/14 11:47:33;;;;;;;18.88;8.95;;;;;;;7.53;69.87;99901.47;5031761;28;20036;-78
2020/12/14 11:49:58;;;;;;;18.23;9.18;;;;;;;7.41;69.45;99900.44;5033123;28;20086;-76
2020/12/14 11:52:24;;;;;;;15.68;9.85;;;;;;;7.17;70.02;99894.59;5033594;28;20040;-75
2020/12/14 11:54:49;;;;;;;18.95;10.85;;;;;;;7.32;69.82;99896.28;5033261;28;20041;-76
2020/12/14 11:57:15;;;;;;;17.58;9.77;;;;;;;7.33;69.90;99893.41;5033649;28;20124;-76
2020/12/14 11:59:40;;;;;;;18.77;10.95;;;;;;;7.42;69.77;99894.00;5033590;28;20487;-77
2020/12/14 12:02:06;;;;;;;17.20;9.57;;;;;;;7.40;69.90;99891.53;5033419;28;20412;-76
2020/12/14 12:04:33;;;;;;;18.52;9.07;;;;;;;7.31;70.12;99898.16;5029811;28;20041;-75
2020/12/14 12:07:01;;;;;;;16.63;10.05;;;;;;;7.20;69.83;99902.28;5013269;28;20051;-76
2020/12/14 12:09:26;;;;;;;18.27;10.35;;;;;;;7.20;70.40;99891.50;5013644;28;20048;-76
2020/12/14 12:11:51;;;;;;;17.15;10.55;;;;;;;7.18;70.33;99890.06;5013523;28;20037;-76
2020/12/14 12:14:17;;;;;;;18.40;8.82;;;;;;;7.17;70.90;99883.03;5013821;28;20064;-75
2020/12/14 12:16:43;;;;;;;21.30;10.52;;;;;;;7.15;70.32;99885.13;5029924;28;20056;-75
2020/12/14 12:19:08;;;;;;;18.85;10.75;;;;;;;7.15;70.31;99880.53;5029102;28;20051;-76
2020/12/14 12:21:34;;;;;;;17.88;10.82;;;;;;;7.07;70.65;99887.97;5014223;28;20068;-76
2020/12/14 12:23:59;;;;;;;17.60;10.55;;;;;;;7.08;70.48;99879.72;5014304;28;20137;-76
2020/12/14 12:26:24;;;;;;;19.80;11.43;;;;;;;7.07;70.67;99878.06;5013881;28;20117;-78
2020/12/14 12:28:50;;;;;;;16.98;9.38;;;;;;;7.09;70.55;99878.69;5013429;28;20040;-76
2020/12/14 12:31:15;;;;;;;19.17;10.95;;;;;;;7.09;70.10;99880.53;5012885;28;20048;-75
2020/12/14 12:33:41;;;;;;;18.58;10.43;;;;;;;7.08;70.07;99878.88;5012963;28;20056;-76
2020/12/14 12:36:08;;;;;;;17.95;9.32;;;;;;;7.10;70.49;99866.06;5013436;28;20102;-75
2020/12/14 12:38:34;;;;;;;18.08;10.55;;;;;;;7.10;69.66;99872.28;5030009;28;20091;-77
2020/12/14 12:40:59;;;;;;;15.90;9.68;;;;;;;7.12;69.85;99864.00;5013330;28;20036;-77
2020/12/14 12:43:25;;;;;;;17.40;10.45;;;;;;;7.08;69.93;99862.75;5013453;28;20059;-77
2020/12/14 12:45:53;;;;;;;19.95;10.80;;;;;;;7.07;69.92;99861.91;5013303;28;20052;-76
2020/12/14 12:48:19;;;;;;;18.35;10.13;;;;;;;7.15;70.10;99859.03;5012985;28;20522;-76
2020/12/14 12:50:54;;;;;;;20.08;11.40;;;;;;;7.08;69.97;99862.75;5018032;28;20040;-77
2020/12/14 12:53:24;;;;;;;24.88;12.90;;;;;;;7.07;70.20;99863.78;5028977;28;20063;-77
2020/12/14 12:55:52;;;;;;;24.85;13.82;;;;;;;7.08;70.31;99858.19;5013176;28;20037;-76
2020/12/14 12:58:22;;;;;;;26.80;12.75;;;;;;;7.06;70.46;99865.63;5019223;28;20059;-78
2020/12/14 13:00:47;;;;;;;25.30;12.07;;;;;;;7.15;70.07;99855.53;5025469;28;20124;-79
2020/12/14 13:03:13;;;;;;;22.77;13.10;;;;;;;7.31;69.39;99867.72;5031476;28;20128;-77
2020/12/14 13:05:40;;;;;;;27.23;13.90;;;;;;;7.41;68.70;99862.78;5032084;28;20037;-78
2020/12/14 13:08:07;;;;;;;26.35;15.40;;;;;;;7.50;68.13;99865.03;5014697;28;20047;-77
2020/12/14 13:10:33;;;;;;;27.98;15.90;;;;;;;7.50;70.82;99848.91;5013843;28;20041;-79
2020/12/14 13:12:59;;;;;;;22.40;12.07;;;;;;;7.07;70.46;99856.53;5013829;28;20036;-78
2020/12/14 13:15:25;;;;;;;24.48;13.88;;;;;;;7.22;71.45;99872.50;5029070;28;20041;-75
2020/12/14 13:17:50;;;;;;;28.73;16.52;;;;;;;6.96;70.55;99856.31;5012825;28;20412;-75
2020/12/14 13:20:16;;;;;;;29.80;16.25;;;;;;;7.18;70.17;99869.38;5012756;28;20103;-76
2020/12/14 13:22:41;;;;;;;22.08;13.25;;;;;;;6.93;70.42;99864.78;5012776;28;20069;-76
2020/12/14 13:25:07;;;;;;;24.38;14.15;;;;;;;6.87;71.69;99858.38;5013540;28;20049;-75
2020/12/14 13:27:32;;;;;;;29.02;16.55;;;;;;;6.83;70.93;99857.13;5018116;28;20032;-76
2020/12/14 13:29:57;;;;;;;27.05;15.85;;;;;;;6.80;70.39;99846.81;5031529;28;20494;-77
2020/12/14 13:32:23;;;;;;;24.23;14.05;;;;;;;6.69;71.13;99860.81;5033800;28;20051;-78
2020/12/14 13:34:48;;;;;;;27.95;15.45;;;;;;;6.61;71.52;99869.03;5033403;28;20033;-78
2020/12/14 13:37:14;;;;;;;29.30;14.80;;;;;;;6.48;71.86;99867.13;5034533;28;20048;-78
2020/12/14 13:39:39;;;;;;;30.23;17.77;;;;;;;6.44;72.12;99861.38;5034175;28;20059;-77
2020/12/14 13:42:05;;;;;;;32.63;15.02;;;;;;;6.40;72.14;99857.41;5031493;28;20132;-77
2020/12/14 13:44:30;;;;;;;28.17;15.70;;;;;;;6.43;72.25;99864.25;5013246;28;20639;-77
2020/12/14 13:46:56;;;;;;;25.00;14.93;;;;;;;6.30;72.35;99862.31;5013491;28;20041;-79
2020/12/14 13:49:22;;;;;;;28.20;15.30;;;;;;;6.32;72.37;99860.28;5023503;28;20043;-78
2020/12/14 13:51:47;;;;;;;24.50;14.32;;;;;;;6.32;72.07;99852.22;5013848;28;20450;-79
2020/12/14 13:54:13;;;;;;;25.10;16.05;;;;;;;6.30;72.87;99854.28;5014215;28;20037;-78
2020/12/14 13:56:40;;;;;;;26.85;14.40;;;;;;;6.35;73.60;99845.59;5014209;28;20499;-77
2020/12/14 13:59:05;;;;;;;22.63;13.48;;;;;;;6.31;72.48;99847.88;5033233;28;20067;-78
2020/12/14 14:01:31;;;;;;;27.10;15.43;;;;;;;6.33;72.16;99847.69;5034263;28;20492;-78
2020/12/14 14:03:56;;;;;;;25.75;15.27;;;;;;;6.31;72.08;99847.88;5031264;28;20044;-78
2020/12/14 14:06:22;;;;;;;24.13;15.25;;;;;;;6.26;72.91;99839.59;5014699;28;20063;-79
2020/12/14 14:08:47;;;;;;;28.65;15.57;;;;;;;6.25;72.68;99842.47;5015209;28;20037;-78
2020/12/14 14:11:12;;;;;;;25.60;14.10;;;;;;;6.25;72.61;99845.97;5015133;28;20040;-80
2020/12/14 14:13:39;;;;;;;28.20;14.95;;;;;;;6.16;72.63;99847.19;5014546;28;20500;-78
2020/12/14 14:16:04;;;;;;;21.45;13.20;;;;;;;6.42;75.15;99858.03;5014314;28;20044;-78
2020/12/14 14:18:30;;;;;;;24.20;14.00;;;;;;;6.25;72.43;99858.56;5017825;28;20033;-78
2020/12/14 14:20:55;;;;;;;23.60;13.88;;;;;;;6.17;72.39;99855.03;5014503;28;20047;-80
2020/12/14 14:23:21;;;;;;;23.30;14.32;;;;;;;6.12;72.63;99860.16;5024334;28;20426;-80
2020/12/14 14:25:47;;;;;;;21.33;12.93;;;;;;;6.11;72.99;99858.53;5032037;28;20044;-77
2020/12/14 14:28:12;;;;;;;23.05;13.63;;;;;;;6.09;72.98;99863.25;5019646;28;20511;-79
2020/12/14 14:30:38;;;;;;;22.65;13.40;;;;;;;6.04;72.85;99871.06;5012101;28;20063;-77
2020/12/14 14:33:04;;;;;;;24.02;13.38;;;;;;;5.99;73.34;99862.81;5013570;28;20045;-77
2020/12/14 14:35:30;;;;;;;21.38;12.70;;;;;;;5.96;73.45;99875.78;5012653;28;20111;-76
2020/12/14 14:37:58;;;;;;;22.25;12.95;;;;;;;5.90;73.31;99871.19;5013057;28;20083;-79
2020/12/14 14:40:25;;;;;;;23.65;12.82;;;;;;;5.93;73.51;99868.94;5019389;28;20033;-78
2020/12/14 14:42:53;;;;;;;22.23;12.93;;;;;;;5.88;73.77;99882.13;5033378;28;20029;-78
2020/12/14 14:45:19;;;;;;;24.33;13.50;;;;;;;5.86;73.65;99877.94;5015731;28;20668;-78
2020/12/14 14:47:45;;;;;;;21.20;13.05;;;;;;;5.77;74.13;99882.63;5017134;28;20045;-78
2020/12/14 14:50:11;;;;;;;24.42;14.50;;;;;;;5.72;74.12;99877.03;5020924;28;20123;-80
2020/12/14 14:52:59;;;;;;;24.60;15.40;;;;;;;5.66;73.91;99877.78;5034565;28;20571;-80
2020/12/14 14:55:35;;;;;;;22.33;13.35;;;;;;;5.63;74.31;99883.56;5036422;28;20044;-80
2020/12/14 14:58:03;;;;;;;20.50;13.10;;;;;;;5.59;74.41;99893.03;5036515;28;20683;-78
2020/12/14 15:00:28;;;;;;;21.38;11.65;;;;;;;5.55;74.50;99892.56;5035943;28;20041;-79
2020/12/14 15:02:54;;;;;;;25.23;14.40;;;;;;;5.63;74.46;99899.66;5052603;28;20086;-79
2020/12/14 15:05:19;;;;;;;21.77;12.75;;;;;;;5.56;74.49;99898.75;5035851;28;20028;-78
2020/12/14 15:07:45;;;;;;;19.40;12.55;;;;;;;5.46;74.85;99894.56;5035870;28;20469;-78
2020/12/14 15:10:10;;;;;;;20.27;11.65;;;;;;;5.50;74.13;99897.69;5052426;28;20135;-79
2020/12/14 15:12:41;;;;;;;20.65;12.32;;;;;;;5.74;74.59;99893.75;5036317;28;20461;-79
2020/12/14 15:15:06;;;;;;;25.80;13.27;;;;;;;5.48;74.70;99889.03;5053354;28;20483;-78
2020/12/14 15:17:32;;;;;;;22.52;12.13;;;;;;;5.44;74.86;99903.81;5036129;28;20078;-78
2020/12/14 15:19:57;;;;;;;20.80;11.70;;;;;;;5.39;74.85;99899.06;5035886;28;20752;-78
2020/12/14 15:22:23;;;;;;;19.20;11.40;;;;;;;5.40;74.36;99905.25;5035714;28;20411;-79
2020/12/14 15:24:49;;;;;;;18.00;11.55;;;;;;;5.34;74.88;99900.66;5034591;28;20056;-80
2020/12/14 15:27:24;;;;;;;20.23;11.27;;;;;;;5.44;74.72;99910.00;5034939;28;20044;-78
2020/12/14 15:29:50;;;;;;;17.83;10.68;;;;;;;5.33;74.73;99902.50;5035643;28;20119;-80
2020/12/14 15:32:15;;;;;;;18.92;10.93;;;;;;;5.40;75.07;99907.94;5035583;28;20131;-78
2020/12/14 15:34:42;;;;;;;17.48;10.98;;;;;;;5.38;75.44;99915.34;5035913;28;20037;-79
2020/12/14 15:37:18;;;;;;;17.23;10.90;;;;;;;5.39;75.44;99912.47;5018091;28;20044;-78
2020/12/14 15:39:44;;;;;;;21.30;11.60;;;;;;;5.43;74.58;99911.03;5045106;28;20047;-78
2020/12/14 15:42:10;;;;;;;42.13;18.23;;;;;;;5.47;74.65;99906.13;5035043;28;20487;-78
2020/12/14 15:44:35;;;;;;;19.48;11.98;;;;;;;5.47;75.05;99909.63;5036008;28;20082;-78
2020/12/14 15:47:01;;;;;;;19.48;11.18;;;;;;;5.40;74.82;99918.66;5035153;28;20539;-78
2020/12/14 15:49:26;;;;;;;18.20;11.63;;;;;;;5.48;76.76;99913.16;5035173;28;20098;-78
2020/12/14 15:51:52;;;;;;;19.40;12.63;;;;;;;5.28;74.95;99907.63;5051962;28;20056;-78
2020/12/14 15:54:23;;;;;;;20.20;12.52;;;;;;;5.49;75.05;99920.19;5034448;28;20487;-79
2020/12/14 15:56:58;;;;;;;20.15;11.75;;;;;;;5.34;74.95;99919.41;5052081;28;20052;-79
2020/12/14 15:59:24;;;;;;;17.80;10.57;;;;;;;5.41;75.29;99909.59;5035419;28;20051;-77
2020/12/14 16:01:54;;;;;;;18.70;11.52;;;;;;;5.27;75.44;99916.69;5034948;28;20037;-78
2020/12/14 16:04:19;;;;;;;17.48;10.70;;;;;;;5.24;75.38;99922.41;5035947;28;20503;-79
2020/12/14 16:06:45;;;;;;;18.90;11.20;;;;;;;5.22;76.15;99928.97;5031545;28;20103;-79
2020/12/14 16:09:11;;;;;;;20.08;11.40;;;;;;;5.04;76.00;99902.63;5031943;28;20742;-81
2020/12/14 16:11:41;;;;;;;16.83;10.43;;;;;;;5.06;75.52;99906.78;5015628;28;20036;-79
2020/12/14 16:14:07;;;;;;;15.82;10.52;;;;;;;5.03;76.32;99925.91;5032346;28;20485;-78
2020/12/14 16:16:32;;;;;;;15.25;9.85;;;;;;;5.08;77.08;99911.94;5015447;28;20116;-79
2020/12/14 16:19:04;;;;;;;16.27;10.85;;;;;;;5.07;76.00;99907.63;5015610;28;20998;-79
2020/12/14 16:21:37;;;;;;;15.80;9.98;;;;;;;5.12;75.94;99907.88;5015334;28;20037;-80
2020/12/14 16:24:02;;;;;;;16.23;10.13;;;;;;;5.07;75.86;99902.28;5015383;28;20119;-80
2020/12/14 16:26:29;;;;;;;15.82;10.30;;;;;;;5.10;76.21;99907.22;5014718;28;20144;-78
2020/12/14 16:28:55;;;;;;;16.50;11.10;;;;;;;5.06;76.00;99916.69;5014714;28;20041;-78
2020/12/14 16:31:20;;;;;;;16.42;10.63;;;;;;;5.03;76.06;99920.56;5014637;28;20052;-80
2020/12/14 16:33:46;;;;;;;15.48;8.98;;;;;;;5.02;76.36;99918.06;5014582;28;20041;-78